Airport ID:KCCB
Update Time (UTC):22/01/2018 23:30
Wind Speed (Knots):4
Wind Direction (Magnetic):240
Temperature (°C):17.8
Dew Point (°C):-11.3
Humidity (%):13.5
Altimeter (inHg):30.16
Density Altitude (Feet):
Visibility (Miles):10
Clouds (Hundreds of feet):CLR
Present Weather:
METAR:METAR KCCB 222330Z AUTO 25004KT 10SM CLR 18/M11 A3016 RMK AO2

The data displayed is for advisory purposes only and is not to be used for flight planning or operations.

This page is not automatically refreshed. Reload the page to see current data.